Time;durP1;ratioP1;P1;durP2;ratioP2;P2;SDS_P1;SDS_P2;PMS_P1;PMS_P2;Temp;Humidity;BMP_temperature;BMP_pressure;BME280_temperature;BME280_humidity;BME280_pressure;Samples;Min_cycle;Max_cycle;Signal;HPM_P1;HPM_P2
2021/12/25 00:01:00;;;;;;;30.45;14.07;;;;;;;;;;5034279;28;20046;-36
2021/12/25 00:03:26;;;;;;;24.48;11.43;;;;;;;;;;5034189;28;20492;-36
2021/12/25 00:05:54;;;;;;;23.23;12.18;;;;;;;;;;5034022;28;20030;-36
2021/12/25 00:08:20;;;;;;;29.45;12.38;;;;;;;;;;5033957;28;20021;-36
2021/12/25 00:10:45;;;;;;;31.25;14.02;;;;;;;;;;5033919;28;20098;-36
2021/12/25 00:13:11;;;;;;;34.40;14.23;;;;;;;;;;5033961;28;20028;-35
2021/12/25 00:15:36;;;;;;;32.95;14.23;;;;;;;;;;5033853;28;20033;-35
2021/12/25 00:18:02;;;;;;;30.98;13.95;;;;;;;;;;5033790;28;20021;-35
2021/12/25 00:20:27;;;;;;;28.85;13.43;;;;;;;;;;5034085;28;20383;-35
2021/12/25 00:22:53;;;;;;;32.63;14.10;;;;;;;;;;5033653;28;20071;-36
2021/12/25 00:25:20;;;;;;;31.88;12.30;;;;;;;;;;5033667;28;20080;-36
2021/12/25 00:30:33;;;;;;;28.75;12.68;;;;;;;;;;5033605;28;20038;-35
2021/12/25 00:33:06;;;;;;;23.75;11.25;;;;;;;;;;5033564;28;20468;-36
2021/12/25 00:35:32;;;;;;;44.30;15.70;;;;;;;;;;5032201;28;20022;-36
2021/12/25 00:37:58;;;;;;;31.58;13.40;;;;;;;;;;5033677;28;20122;-36
2021/12/25 00:40:23;;;;;;;25.35;11.05;;;;;;;;;;5033486;28;20199;-36
2021/12/25 00:42:49;;;;;;;33.13;14.00;;;;;;;;;;5032106;28;20029;-35
2021/12/25 00:45:14;;;;;;;26.38;12.38;;;;;;;;;;5033384;28;20033;-36
2021/12/25 00:47:40;;;;;;;31.20;11.05;;;;;;;;;;5032049;28;20418;-36
2021/12/25 00:50:06;;;;;;;37.60;14.48;;;;;;;;;;5031882;28;20040;-36
2021/12/25 00:52:31;;;;;;;23.15;12.68;;;;;;;;;;5033527;28;20041;-36
2021/12/25 00:54:57;;;;;;;37.13;13.55;;;;;;;;;;5031828;28;20060;-36
2021/12/25 00:57:22;;;;;;;39.33;13.48;;;;;;;;;;5033022;28;20037;-36
2021/12/25 00:59:48;;;;;;;30.73;13.35;;;;;;;;;;5031585;28;20091;-36
2021/12/25 01:02:13;;;;;;;37.33;13.93;;;;;;;;;;5031737;28;20091;-35
2021/12/25 01:04:39;;;;;;;36.17;14.52;;;;;;;;;;5032936;28;20471;-36
2021/12/25 01:07:05;;;;;;;37.60;14.10;;;;;;;;;;5031620;28;20025;-35
2021/12/25 01:09:31;;;;;;;34.33;13.02;;;;;;;;;;5031634;28;20483;-36
2021/12/25 01:11:59;;;;;;;29.70;10.70;;;;;;;;;;5048041;28;20476;-35
2021/12/25 01:14:52;;;;;;;34.90;14.80;;;;;;;;;;5033117;28;20030;-36
2021/12/25 01:25:50;;;;;;;49.70;17.02;;;;;;;;;;5032541;28;20132;-37
2021/12/25 01:30:54;;;;;;;35.45;12.07;;;;;;;;;;5031253;28;20032;-36
2021/12/25 01:48:40;;;;;;;35.88;12.38;;;;;;;;;;5031825;28;20037;-35
2021/12/25 01:51:06;;;;;;;35.63;11.00;;;;;;;;;;5030746;28;20029;-36
2021/12/25 01:53:31;;;;;;;36.80;13.00;;;;;;;;;;5032101;28;20410;-36
2021/12/25 01:56:01;;;;;;;31.15;13.52;;;;;;;;;;5032289;28;20033;-36
2021/12/25 01:58:26;;;;;;;32.70;12.50;;;;;;;;;;5030715;28;20018;-36
2021/12/25 02:00:54;;;;;;;37.33;13.95;;;;;;;;;;5030402;28;20048;-36
2021/12/25 02:03:22;;;;;;;29.42;12.75;;;;;;;;;;5030724;28;20325;-36
2021/12/25 02:05:48;;;;;;;33.40;13.73;;;;;;;;;;5030671;28;20033;-35
2021/12/25 02:08:13;;;;;;;37.88;14.25;;;;;;;;;;5031883;28;20029;-36
2021/12/25 02:10:39;;;;;;;41.28;15.75;;;;;;;;;;5029864;28;20029;-35
2021/12/25 02:13:04;;;;;;;46.75;15.02;;;;;;;;;;5030481;28;20024;-36
2021/12/25 02:15:31;;;;;;;49.75;15.57;;;;;;;;;;5030470;28;20472;-36
2021/12/25 02:18:14;;;;;;;47.50;13.98;;;;;;;;;;5030507;28;20027;-35
2021/12/25 02:21:16;;;;;;;22.90;9.77;;;;;;;;;;5038199;28;20061;-36
2021/12/25 02:23:42;;;;;;;34.30;12.60;;;;;;;;;;5030261;28;20443;-35
2021/12/25 02:26:08;;;;;;;30.67;13.07;;;;;;;;;;5013850;28;20357;-36
2021/12/25 02:28:34;;;;;;;41.35;15.68;;;;;;;;;;5030236;28;20112;-36
2021/12/25 02:31:02;;;;;;;42.58;13.75;;;;;;;;;;5030104;28;20063;-35
2021/12/25 02:33:28;;;;;;;42.88;14.88;;;;;;;;;;5030209;28;20542;-36
2021/12/25 02:35:54;;;;;;;38.78;13.82;;;;;;;;;;5030066;28;20061;-36
2021/12/25 02:38:20;;;;;;;34.60;13.40;;;;;;;;;;5030122;28;20060;-36
2021/12/25 02:40:46;;;;;;;40.25;12.63;;;;;;;;;;5029842;28;20085;-35
2021/12/25 02:43:12;;;;;;;40.10;13.65;;;;;;;;;;5029991;28;20029;-36
2021/12/25 02:45:37;;;;;;;44.00;13.38;;;;;;;;;;5031574;28;20087;-36
2021/12/25 02:48:08;;;;;;;39.80;13.52;;;;;;;;;;5031145;28;20107;-35
2021/12/25 02:50:34;;;;;;;28.88;12.30;;;;;;;;;;5029931;28;20030;-36
2021/12/25 02:53:00;;;;;;;34.88;13.43;;;;;;;;;;5029818;28;20044;-35
2021/12/25 02:55:26;;;;;;;43.95;15.27;;;;;;;;;;5030001;28;20356;-36
2021/12/25 02:57:52;;;;;;;37.40;13.80;;;;;;;;;;5046478;28;20052;-36
2021/12/25 03:00:21;;;;;;;36.88;12.25;;;;;;;;;;5029785;28;20041;-36
2021/12/25 03:02:47;;;;;;;38.55;13.85;;;;;;;;;;5031460;28;20037;-35
2021/12/25 03:05:12;;;;;;;33.83;12.50;;;;;;;;;;5031033;28;20013;-36
2021/12/25 03:07:38;;;;;;;55.08;14.60;;;;;;;;;;5029851;28;20037;-35
2021/12/25 03:10:05;;;;;;;48.92;12.95;;;;;;;;;;5029753;28;20021;-35
2021/12/25 03:12:37;;;;;;;41.38;13.90;;;;;;;;;;5029680;28;20030;-36
2021/12/25 03:15:07;;;;;;;47.08;15.88;;;;;;;;;;5029725;28;20637;-35
2021/12/25 03:17:34;;;;;;;35.10;13.43;;;;;;;;;;5029747;28;20030;-36
2021/12/25 03:19:59;;;;;;;37.15;13.13;;;;;;;;;;5029470;28;20542;-36
2021/12/25 03:22:25;;;;;;;38.70;14.15;;;;;;;;;;5034016;28;20029;-36
2021/12/25 03:24:51;;;;;;;42.17;14.20;;;;;;;;;;5033579;28;20022;-36
2021/12/25 03:27:17;;;;;;;42.10;15.00;;;;;;;;;;5033339;28;20781;-36
2021/12/25 03:29:43;;;;;;;46.42;13.40;;;;;;;;;;5033547;28;20387;-36
2021/12/25 03:32:09;;;;;;;46.92;15.88;;;;;;;;;;5034696;28;20112;-36
2021/12/25 03:34:36;;;;;;;54.55;16.08;;;;;;;;;;5017075;28;20028;-36
2021/12/25 03:37:02;;;;;;;50.92;14.45;;;;;;;;;;5033219;28;20120;-36
2021/12/25 03:39:28;;;;;;;40.65;15.15;;;;;;;;;;5033306;28;20384;-36
2021/12/25 03:41:56;;;;;;;40.35;14.60;;;;;;;;;;5034385;28;20045;-36
2021/12/25 03:44:22;;;;;;;39.78;12.88;;;;;;;;;;5034494;28;20036;-36
2021/12/25 03:46:48;;;;;;;38.70;13.15;;;;;;;;;;5034385;28;20087;-36
2021/12/25 03:49:26;;;;;;;44.60;13.60;;;;;;;;;;5034535;28;20025;-36
2021/12/25 03:57:49;;;;;;;39.33;14.27;;;;;;;;;;5033008;28;20037;-36
2021/12/25 04:00:19;;;;;;;62.92;14.15;;;;;;;;;;5032901;28;20037;-35
2021/12/25 04:02:55;;;;;;;57.90;15.95;;;;;;;;;;5034379;28;20025;-36
2021/12/25 04:05:33;;;;;;;54.67;15.07;;;;;;;;;;5032911;28;20037;-36
2021/12/25 04:10:24;;;;;;;54.00;16.92;;;;;;;;;;5034275;28;20029;-36
2021/12/25 04:12:50;;;;;;;50.70;14.32;;;;;;;;;;5049333;28;20116;-36
2021/12/25 04:15:16;;;;;;;44.15;15.25;;;;;;;;;;5032618;28;20064;-36
2021/12/25 04:17:42;;;;;;;38.42;14.75;;;;;;;;;;5032621;28;20435;-36
2021/12/25 04:20:08;;;;;;;43.47;14.57;;;;;;;;;;5033992;28;20593;-36
2021/12/25 04:22:44;;;;;;;53.92;16.77;;;;;;;;;;5049221;28;20034;-36
2021/12/25 04:25:10;;;;;;;43.20;13.38;;;;;;;;;;5032409;28;20045;-35
2021/12/25 04:27:36;;;;;;;52.08;15.95;;;;;;;;;;5032426;28;20498;-36
2021/12/25 04:30:16;;;;;;;48.83;14.70;;;;;;;;;;5032327;28;20057;-36
2021/12/25 05:05:13;;;;;;;36.50;11.90;;;;;;;;;;5033354;28;20087;-36
2021/12/25 05:07:56;;;;;;;43.78;11.85;;;;;;;;;;5023659;28;20500;-36
2021/12/25 05:10:21;;;;;;;36.78;12.77;;;;;;;;;;5031661;28;20048;-36
2021/12/25 05:12:47;;;;;;;35.65;12.50;;;;;;;;;;5032827;28;20029;-36
2021/12/25 05:15:12;;;;;;;53.92;12.43;;;;;;;;;;5032766;28;20033;-36
2021/12/25 05:17:38;;;;;;;56.75;12.05;;;;;;;;;;5031457;28;20135;-35
2021/12/25 05:20:03;;;;;;;44.33;11.60;;;;;;;;;;5030998;28;20041;-36
2021/12/25 05:22:30;;;;;;;29.20;11.15;;;;;;;;;;5031358;28;20388;-35
2021/12/25 05:24:55;;;;;;;41.17;14.32;;;;;;;;;;5031316;28;20033;-36
2021/12/25 05:27:21;;;;;;;50.28;12.93;;;;;;;;;;5031241;28;20583;-36
2021/12/25 05:29:47;;;;;;;48.38;13.88;;;;;;;;;;5031339;28;20026;-36
2021/12/25 05:32:17;;;;;;;45.92;11.75;;;;;;;;;;5031192;28;20029;-36
2021/12/25 05:34:58;;;;;;;48.78;15.25;;;;;;;;;;5031155;28;20450;-36
2021/12/25 05:37:56;;;;;;;34.45;14.75;;;;;;;;;;5031150;28;20080;-36
2021/12/25 05:40:44;;;;;;;31.52;11.82;;;;;;;;;;5032290;28;20569;-35
2021/12/25 05:43:10;;;;;;;37.88;13.18;;;;;;;;;;5030906;28;20036;-35
2021/12/25 05:45:36;;;;;;;34.40;12.85;;;;;;;;;;5030081;28;20017;-35
2021/12/25 05:48:07;;;;;;;36.97;13.45;;;;;;;;;;5030898;28;20032;-35
2021/12/25 05:50:58;;;;;;;50.50;13.02;;;;;;;;;;5023613;28;20041;-36
2021/12/25 05:53:56;;;;;;;36.70;12.75;;;;;;;;;;5019788;28;20033;-36
2021/12/25 05:56:34;;;;;;;36.75;14.88;;;;;;;;;;5030694;28;20037;-36
2021/12/25 05:59:18;;;;;;;33.78;12.52;;;;;;;;;;5030587;28;20032;-36
2021/12/25 06:01:55;;;;;;;42.50;14.38;;;;;;;;;;5032002;28;20029;-36
2021/12/25 06:04:24;;;;;;;35.85;14.40;;;;;;;;;;5030609;28;20036;-35
2021/12/25 06:06:49;;;;;;;39.35;12.70;;;;;;;;;;5031891;28;20018;-36
2021/12/25 06:09:15;;;;;;;40.30;14.05;;;;;;;;;;5030475;28;20159;-35
2021/12/25 06:11:40;;;;;;;38.08;13.68;;;;;;;;;;5030451;28;20025;-36
2021/12/25 06:14:11;;;;;;;43.78;13.25;;;;;;;;;;5030254;28;20404;-36
2021/12/25 06:16:46;;;;;;;32.40;13.55;;;;;;;;;;5047015;28;20041;-36
2021/12/25 06:19:27;;;;;;;47.65;14.50;;;;;;;;;;5030316;28;20033;-36
2021/12/25 06:22:15;;;;;;;40.05;13.50;;;;;;;;;;5031348;28;20039;-35
2021/12/25 06:25:04;;;;;;;44.40;14.50;;;;;;;;;;5031645;28;20392;-36
2021/12/25 06:27:44;;;;;;;35.60;12.93;;;;;;;;;;5030250;28;20049;-36
2021/12/25 06:30:33;;;;;;;50.67;14.68;;;;;;;;;;5031403;28;20057;-36
2021/12/25 06:33:34;;;;;;;48.83;13.82;;;;;;;;;;5029155;28;20041;-35
2021/12/25 06:35:59;;;;;;;43.40;12.52;;;;;;;;;;5030939;28;20163;-36
2021/12/25 06:39:00;;;;;;;36.80;15.35;;;;;;;;;;4989408;28;20038;-36
2021/12/25 06:41:34;;;;;;;50.75;15.30;;;;;;;;;;5023762;28;20056;-36
2021/12/25 06:44:01;;;;;;;45.53;14.27;;;;;;;;;;5030039;28;20022;-36
2021/12/25 06:46:40;;;;;;;46.15;15.05;;;;;;;;;;5029581;28;20036;-36
2021/12/25 06:49:05;;;;;;;50.95;14.18;;;;;;;;;;5031197;28;20404;-36
2021/12/25 06:52:00;;;;;;;54.95;13.05;;;;;;;;;;5011575;28;20076;-36
2021/12/25 06:54:39;;;;;;;57.47;13.13;;;;;;;;;;5030011;28;20029;-36
2021/12/25 06:57:24;;;;;;;35.63;13.52;;;;;;;;;;5033187;28;20779;-36
2021/12/25 06:59:51;;;;;;;35.45;13.60;;;;;;;;;;5034014;28;20141;-36
2021/12/25 07:02:18;;;;;;;42.63;14.40;;;;;;;;;;5033976;28;20017;-36
2021/12/25 07:05:02;;;;;;;41.63;14.65;;;;;;;;;;5035269;28;20076;-36
2021/12/25 07:07:56;;;;;;;44.10;11.20;;;;;;;;;;5037787;28;20035;-36
2021/12/25 07:10:42;;;;;;;32.40;10.88;;;;;;;;;;5033701;28;20053;-36
2021/12/25 07:13:28;;;;;;;42.47;15.50;;;;;;;;;;5031123;28;20034;-36
2021/12/25 07:16:16;;;;;;;40.72;14.18;;;;;;;;;;5034862;28;20115;-36
2021/12/25 07:19:00;;;;;;;34.70;11.82;;;;;;;;;;5035043;28;20040;-36
2021/12/25 07:21:38;;;;;;;41.53;15.40;;;;;;;;;;5034027;28;20069;-36
2021/12/25 07:24:22;;;;;;;40.67;13.23;;;;;;;;;;5035420;28;20117;-36
2021/12/25 07:26:58;;;;;;;41.60;16.08;;;;;;;;;;5033661;28;20029;-36
2021/12/25 07:29:39;;;;;;;35.70;13.73;;;;;;;;;;5035146;28;20029;-36
2021/12/25 07:32:04;;;;;;;43.33;13.30;;;;;;;;;;5033787;28;20033;-35
2021/12/25 07:34:30;;;;;;;46.15;15.68;;;;;;;;;;5034746;28;20017;-36
2021/12/25 07:36:55;;;;;;;42.25;14.05;;;;;;;;;;5034642;28;20053;-36
2021/12/25 07:39:21;;;;;;;43.67;12.82;;;;;;;;;;5034741;28;20483;-36
2021/12/25 07:41:46;;;;;;;43.38;17.35;;;;;;;;;;5034531;28;20503;-36
2021/12/25 07:44:24;;;;;;;32.85;13.55;;;;;;;;;;5033251;28;20061;-36
2021/12/25 07:46:51;;;;;;;48.47;16.15;;;;;;;;;;5034961;28;20029;-36
2021/12/25 07:49:19;;;;;;;45.13;16.30;;;;;;;;;;5034579;28;20482;-36
2021/12/25 07:51:45;;;;;;;38.75;15.40;;;;;;;;;;5034642;28;20120;-36
2021/12/25 07:54:11;;;;;;;52.25;16.73;;;;;;;;;;5034524;28;20029;-36
2021/12/25 07:56:36;;;;;;;46.53;14.98;;;;;;;;;;5034249;28;20041;-36
2021/12/25 07:59:02;;;;;;;46.03;15.05;;;;;;;;;;5032843;28;20028;-35
2021/12/25 08:01:29;;;;;;;38.30;16.13;;;;;;;;;;5034468;28;20041;-36
2021/12/25 08:03:55;;;;;;;41.53;14.23;;;;;;;;;;5034148;28;20028;-36
2021/12/25 08:06:20;;;;;;;45.30;15.80;;;;;;;;;;5033993;28;20033;-36
2021/12/25 08:08:46;;;;;;;43.42;15.88;;;;;;;;;;5033003;28;20100;-39
2021/12/25 08:11:13;;;;;;;38.50;14.05;;;;;;;;;;5034209;28;20033;-36
2021/12/25 08:13:39;;;;;;;45.47;15.38;;;;;;;;;;5034032;28;20030;-36
2021/12/25 08:16:04;;;;;;;37.47;14.43;;;;;;;;;;5033926;28;20036;-36
2021/12/25 08:18:31;;;;;;;35.00;15.60;;;;;;;;;;5034158;28;20108;-35
2021/12/25 08:21:15;;;;;;;43.58;14.52;;;;;;;;;;5033891;28;20446;-36
2021/12/25 08:23:59;;;;;;;35.90;14.68;;;;;;;;;;5033864;28;20044;-36
2021/12/25 08:26:43;;;;;;;41.53;13.27;;;;;;;;;;5034053;28;20582;-35
2021/12/25 08:29:18;;;;;;;33.38;13.55;;;;;;;;;;5033695;28;20036;-36
2021/12/25 08:32:02;;;;;;;33.15;14.73;;;;;;;;;;5033635;28;20044;-36
2021/12/25 08:35:03;;;;;;;28.38;14.20;;;;;;;;;;5033418;28;20075;-36
2021/12/25 08:37:34;;;;;;;40.05;13.65;;;;;;;;;;5032209;28;20391;-36
2021/12/25 08:39:59;;;;;;;34.90;14.13;;;;;;;;;;5033112;28;20048;-36
2021/12/25 08:42:25;;;;;;;37.00;15.88;;;;;;;;;;5033537;28;20032;-35
2021/12/25 08:47:26;;;;;;;38.13;12.02;;;;;;;;;;5033311;28;20028;-36
2021/12/25 08:49:52;;;;;;;38.35;14.20;;;;;;;;;;5033561;28;20021;-36
2021/12/25 08:52:18;;;;;;;34.28;12.98;;;;;;;;;;5033260;28;20045;-35
2021/12/25 08:54:44;;;;;;;44.20;14.60;;;;;;;;;;5033382;28;20025;-36
2021/12/25 08:57:10;;;;;;;43.53;12.93;;;;;;;;;;5033379;28;20389;-36
2021/12/25 08:59:37;;;;;;;30.48;13.23;;;;;;;;;;5033055;28;20116;-36
2021/12/25 09:02:04;;;;;;;39.65;14.25;;;;;;;;;;5032904;28;20464;-36
2021/12/25 09:04:30;;;;;;;37.78;13.23;;;;;;;;;;5033125;28;20416;-35
2021/12/25 09:06:56;;;;;;;34.47;11.73;;;;;;;;;;5032934;28;20072;-36
2021/12/25 09:09:21;;;;;;;34.40;13.63;;;;;;;;;;5031621;28;20112;-36
2021/12/25 09:11:47;;;;;;;33.88;14.23;;;;;;;;;;5033020;28;20029;-36
2021/12/25 09:14:12;;;;;;;33.53;13.50;;;;;;;;;;5031598;28;20022;-35
2021/12/25 09:16:38;;;;;;;38.45;12.82;;;;;;;;;;5032784;28;20034;-38
2021/12/25 09:19:04;;;;;;;34.20;12.05;;;;;;;;;;5032555;28;20026;-35
2021/12/25 09:21:29;;;;;;;32.28;12.68;;;;;;;;;;5032938;28;20088;-35
2021/12/25 09:23:55;;;;;;;38.15;13.20;;;;;;;;;;5032699;28;20507;-36
2021/12/25 09:26:21;;;;;;;34.45;12.23;;;;;;;;;;5032791;28;20529;-36
2021/12/25 09:28:46;;;;;;;35.80;14.65;;;;;;;;;;5032595;28;20424;-36
2021/12/25 09:31:12;;;;;;;35.17;14.70;;;;;;;;;;5032712;28;20042;-36
2021/12/25 09:33:38;;;;;;;29.58;11.95;;;;;;;;;;5032606;28;20376;-36
2021/12/25 09:36:03;;;;;;;41.22;14.60;;;;;;;;;;5032292;28;20044;-36
2021/12/25 09:38:30;;;;;;;37.17;14.15;;;;;;;;;;5032372;28;20037;-35
2021/12/25 09:40:56;;;;;;;42.85;14.07;;;;;;;;;;5032153;28;20551;-35
2021/12/25 09:43:22;;;;;;;37.15;14.70;;;;;;;;;;5032179;28;20106;-35
2021/12/25 09:45:48;;;;;;;47.67;15.55;;;;;;;;;;5032263;28;20072;-35
2021/12/25 09:48:13;;;;;;;36.55;12.00;;;;;;;;;;5032150;28;20456;-36
2021/12/25 09:50:39;;;;;;;37.38;15.02;;;;;;;;;;5032050;28;20485;-36
2021/12/25 09:53:08;;;;;;;31.42;12.90;;;;;;;;;;5032053;28;20456;-36
2021/12/25 09:55:34;;;;;;;39.42;14.02;;;;;;;;;;5032391;28;20037;-35
2021/12/25 09:58:00;;;;;;;43.03;14.20;;;;;;;;;;5032308;28;20036;-36
2021/12/25 10:00:26;;;;;;;39.92;14.25;;;;;;;;;;5030630;28;20049;-36
2021/12/25 10:02:54;;;;;;;37.75;14.85;;;;;;;;;;5031974;28;20101;-35
2021/12/25 10:05:28;;;;;;;37.38;15.48;;;;;;;;;;5032067;28;20391;-35
2021/12/25 10:08:20;;;;;;;40.10;13.65;;;;;;;;;;5032151;28;20412;-36
2021/12/25 10:11:01;;;;;;;37.95;12.85;;;;;;;;;;5031603;28;20096;-36
2021/12/25 10:13:36;;;;;;;36.42;12.35;;;;;;;;;;5032029;28;20022;-35
2021/12/25 10:16:18;;;;;;;31.38;13.25;;;;;;;;;;5031654;28;20036;-37
2021/12/25 10:18:44;;;;;;;37.30;13.52;;;;;;;;;;5031752;28;20490;-39
2021/12/25 10:21:16;;;;;;;42.00;13.45;;;;;;;;;;5031476;28;20112;-36
2021/12/25 10:23:42;;;;;;;34.83;13.05;;;;;;;;;;5031622;28;20069;-36
2021/12/25 10:26:07;;;;;;;31.55;13.35;;;;;;;;;;5031483;28;20049;-36
2021/12/25 10:28:37;;;;;;;33.45;12.85;;;;;;;;;;5031869;28;20573;-36
2021/12/25 10:31:03;;;;;;;37.40;12.32;;;;;;;;;;5030997;28;20025;-36
2021/12/25 10:33:38;;;;;;;33.40;13.38;;;;;;;;;;5031491;28;20036;-36
2021/12/25 10:36:08;;;;;;;28.30;10.45;;;;;;;;;;5031590;28;20064;-36
2021/12/25 10:38:34;;;;;;;32.22;12.10;;;;;;;;;;5031450;28;20040;-35
2021/12/25 10:41:18;;;;;;;28.83;13.32;;;;;;;;;;5031115;28;20057;-36
2021/12/25 10:43:43;;;;;;;29.38;11.45;;;;;;;;;;5031429;28;20037;-36
2021/12/25 10:46:09;;;;;;;44.13;13.82;;;;;;;;;;5031261;28;20047;-36
2021/12/25 10:48:35;;;;;;;35.45;11.57;;;;;;;;;;5031604;28;20425;-35
2021/12/25 10:51:01;;;;;;;32.10;13.23;;;;;;;;;;5031566;28;20091;-35
2021/12/25 10:53:28;;;;;;;33.50;13.35;;;;;;;;;;5031204;28;20056;-36
2021/12/25 10:56:06;;;;;;;36.67;12.30;;;;;;;;;;5031227;28;20429;-36
2021/12/25 10:58:32;;;;;;;29.23;14.02;;;;;;;;;;5031535;28;20034;-36
2021/12/25 11:00:58;;;;;;;33.28;12.10;;;;;;;;;;5031158;28;20034;-36
2021/12/25 11:03:29;;;;;;;32.75;12.73;;;;;;;;;;5031072;28;20116;-36
2021/12/25 11:05:59;;;;;;;35.08;11.32;;;;;;;;;;5031063;28;20037;-36
2021/12/25 11:08:25;;;;;;;27.73;11.85;;;;;;;;;;5031307;28;20032;-36
2021/12/25 11:10:59;;;;;;;31.67;13.32;;;;;;;;;;5031041;28;20029;-35
2021/12/25 11:13:26;;;;;;;24.95;10.93;;;;;;;;;;5031067;28;20121;-35
2021/12/25 11:16:03;;;;;;;29.02;12.25;;;;;;;;;;5030960;28;20028;-36
2021/12/25 11:18:49;;;;;;;33.10;12.35;;;;;;;;;;5031125;28;20041;-36
2021/12/25 11:21:14;;;;;;;33.58;12.82;;;;;;;;;;5030912;28;20030;-36
2021/12/25 11:23:41;;;;;;;29.85;11.60;;;;;;;;;;5031246;28;20079;-37
2021/12/25 11:26:06;;;;;;;27.90;13.23;;;;;;;;;;5030836;28;20033;-36
2021/12/25 11:28:32;;;;;;;24.85;11.30;;;;;;;;;;5030929;28;20108;-36
2021/12/25 11:30:58;;;;;;;30.48;10.60;;;;;;;;;;5031168;28;20033;-36
2021/12/25 11:33:23;;;;;;;25.33;11.00;;;;;;;;;;5030845;28;20029;-36
2021/12/25 11:35:49;;;;;;;33.72;13.32;;;;;;;;;;5030905;28;20037;-36
2021/12/25 11:38:14;;;;;;;34.20;13.73;;;;;;;;;;5030607;28;20029;-36
2021/12/25 11:40:47;;;;;;;22.73;10.93;;;;;;;;;;5030798;28;20132;-36
2021/12/25 11:43:12;;;;;;;21.88;10.43;;;;;;;;;;5033353;28;20030;-36
2021/12/25 11:45:40;;;;;;;33.15;13.77;;;;;;;;;;5034464;28;20029;-36
2021/12/25 11:48:14;;;;;;;31.20;10.75;;;;;;;;;;5034447;28;20036;-36
2021/12/25 11:50:42;;;;;;;36.25;12.55;;;;;;;;;;5034679;28;20037;-36
2021/12/25 11:53:20;;;;;;;32.17;9.93;;;;;;;;;;5034527;28;20014;-36
2021/12/25 11:56:04;;;;;;;30.55;12.65;;;;;;;;;;5034282;28;20044;-36
2021/12/25 11:58:42;;;;;;;36.63;12.93;;;;;;;;;;5034347;28;20095;-35
2021/12/25 12:01:17;;;;;;;21.25;10.57;;;;;;;;;;5034118;28;20041;-36
2021/12/25 12:03:44;;;;;;;22.08;10.57;;;;;;;;;;5034461;28;20159;-35
2021/12/25 12:06:10;;;;;;;20.65;9.85;;;;;;;;;;5034278;28;20096;-36
2021/12/25 12:08:54;;;;;;;25.77;11.10;;;;;;;;;;5034451;28;20026;-35
2021/12/25 12:11:50;;;;;;;24.23;7.93;;;;;;;;;;5033958;28;20056;-36
2021/12/25 12:15:13;;;;;;;28.45;10.75;;;;;;;;;;5033863;28;20132;-36
2021/12/25 12:20:52;;;;;;;37.35;11.40;;;;;;;;;;5033595;28;20200;-36
2021/12/25 12:23:34;;;;;;;29.17;12.50;;;;;;;;;;5033704;28;20021;-36
2021/12/25 12:26:04;;;;;;;23.85;9.23;;;;;;;;;;5033762;28;20040;-36
2021/12/25 12:28:44;;;;;;;30.98;11.73;;;;;;;;;;5033737;28;20099;-36
2021/12/25 12:31:29;;;;;;;22.55;9.43;;;;;;;;;;5033618;28;20072;-35
2021/12/25 12:33:55;;;;;;;21.27;9.73;;;;;;;;;;5033592;28;20396;-36
2021/12/25 12:36:22;;;;;;;24.75;10.07;;;;;;;;;;5033522;28;20035;-35
2021/12/25 12:38:51;;;;;;;18.80;9.07;;;;;;;;;;5033526;28;20057;-36
2021/12/25 12:41:25;;;;;;;23.50;11.35;;;;;;;;;;5033150;28;20136;-36
2021/12/25 12:44:10;;;;;;;27.23;11.40;;;;;;;;;;5033665;28;20029;-35
2021/12/25 12:46:48;;;;;;;24.20;11.55;;;;;;;;;;5048754;28;20034;-36
2021/12/25 12:49:19;;;;;;;23.50;10.60;;;;;;;;;;5033484;28;20068;-36
2021/12/25 12:51:46;;;;;;;32.40;12.02;;;;;;;;;;5033595;28;20076;-35
2021/12/25 12:54:31;;;;;;;25.15;12.10;;;;;;;;;;5032709;28;20082;-35
2021/12/25 12:57:01;;;;;;;21.45;9.88;;;;;;;;;;5033127;28;20037;-36
2021/12/25 12:59:40;;;;;;;33.60;11.75;;;;;;;;;;5033125;28;20083;-35
2021/12/25 13:02:09;;;;;;;29.45;9.95;;;;;;;;;;5033075;28;20029;-36
2021/12/25 13:04:41;;;;;;;27.38;12.05;;;;;;;;;;5033345;28;20026;-35
2021/12/25 13:07:11;;;;;;;23.88;11.15;;;;;;;;;;5033126;28;20029;-35
2021/12/25 13:09:42;;;;;;;32.42;12.02;;;;;;;;;;5033007;28;20037;-35
2021/12/25 13:12:19;;;;;;;28.02;11.30;;;;;;;;;;5032883;28;20072;-35
2021/12/25 13:14:45;;;;;;;29.00;11.38;;;;;;;;;;5032933;28;20037;-36
2021/12/25 13:17:10;;;;;;;25.27;11.52;;;;;;;;;;5032691;28;20113;-35
2021/12/25 13:19:47;;;;;;;31.17;11.10;;;;;;;;;;5032792;28;20037;-35
2021/12/25 13:22:13;;;;;;;22.40;9.75;;;;;;;;;;5032833;28;20073;-35
2021/12/25 13:24:38;;;;;;;21.33;10.35;;;;;;;;;;5032733;28;20049;-36
2021/12/25 13:27:04;;;;;;;29.52;11.35;;;;;;;;;;5032566;28;20072;-36
2021/12/25 13:29:32;;;;;;;29.85;11.75;;;;;;;;;;5032611;28;20087;-35
2021/12/25 13:31:57;;;;;;;25.73;10.93;;;;;;;;;;5032821;28;20033;-35
2021/12/25 13:34:23;;;;;;;27.88;10.85;;;;;;;;;;5032777;28;20367;-35
2021/12/25 13:36:50;;;;;;;31.45;12.63;;;;;;;;;;5032433;28;20036;-35
2021/12/25 13:39:17;;;;;;;25.35;10.00;;;;;;;;;;5032285;28;20017;-35
2021/12/25 13:41:43;;;;;;;22.55;9.55;;;;;;;;;;5032156;28;20508;-35
2021/12/25 13:44:13;;;;;;;14.63;8.68;;;;;;;;;;5032204;28;20043;-36
2021/12/25 13:46:39;;;;;;;24.05;10.15;;;;;;;;;;5032463;28;20044;-35
2021/12/25 13:49:05;;;;;;;30.33;10.85;;;;;;;;;;5032189;28;20101;-35
2021/12/25 13:51:31;;;;;;;27.52;9.93;;;;;;;;;;5032281;28;20038;-36
2021/12/25 13:53:57;;;;;;;18.50;10.13;;;;;;;;;;5032189;28;20017;-35
2021/12/25 13:56:22;;;;;;;24.27;10.02;;;;;;;;;;5032001;28;20053;-36
2021/12/25 13:58:48;;;;;;;30.00;11.80;;;;;;;;;;5032081;28;20029;-35
2021/12/25 14:01:15;;;;;;;24.60;9.75;;;;;;;;;;5031866;28;20037;-37
2021/12/25 14:03:42;;;;;;;32.40;12.07;;;;;;;;;;5032244;28;20419;-35
2021/12/25 14:06:11;;;;;;;36.15;11.90;;;;;;;;;;5030980;28;20037;-36
2021/12/25 14:08:37;;;;;;;29.50;12.25;;;;;;;;;;5031834;28;20018;-36
2021/12/25 14:11:03;;;;;;;25.48;10.82;;;;;;;;;;5031844;28;20040;-37
2021/12/25 14:13:31;;;;;;;23.85;10.07;;;;;;;;;;5032000;28;20024;-36
2021/12/25 14:15:57;;;;;;;27.02;11.63;;;;;;;;;;5031711;28;20034;-36
2021/12/25 14:18:28;;;;;;;26.50;10.63;;;;;;;;;;5031643;28;20025;-36
2021/12/25 14:20:54;;;;;;;27.05;11.15;;;;;;;;;;5031671;28;20045;-36
2021/12/25 14:23:23;;;;;;;35.42;12.68;;;;;;;;;;5031812;28;20029;-36
2021/12/25 14:25:57;;;;;;;27.30;10.13;;;;;;;;;;5031818;28;20075;-35
2021/12/25 14:28:33;;;;;;;34.85;10.65;;;;;;;;;;5031420;28;20064;-36
2021/12/25 14:31:01;;;;;;;24.20;10.63;;;;;;;;;;5031608;28;20034;-35
2021/12/25 14:33:29;;;;;;;29.42;11.10;;;;;;;;;;5031381;28;20018;-36
2021/12/25 14:35:56;;;;;;;25.70;10.80;;;;;;;;;;5031305;28;20487;-36
2021/12/25 14:38:21;;;;;;;23.73;10.23;;;;;;;;;;5031660;28;20036;-35
2021/12/25 14:40:49;;;;;;;20.23;8.95;;;;;;;;;;5031293;28;20053;-35
2021/12/25 14:43:16;;;;;;;22.77;9.70;;;;;;;;;;5029979;28;20029;-35
2021/12/25 14:45:49;;;;;;;27.30;9.93;;;;;;;;;;5031678;28;20391;-35
2021/12/25 14:48:35;;;;;;;21.25;9.48;;;;;;;;;;5031582;28;20052;-35
2021/12/25 14:51:01;;;;;;;28.83;10.05;;;;;;;;;;5031001;28;20061;-35
2021/12/25 14:53:27;;;;;;;21.48;10.02;;;;;;;;;;5031257;28;20044;-36
2021/12/25 14:55:58;;;;;;;22.77;10.85;;;;;;;;;;5031200;28;20033;-36
2021/12/25 14:58:45;;;;;;;37.15;11.35;;;;;;;;;;5031146;28;20530;-36
2021/12/25 15:01:12;;;;;;;19.30;8.70;;;;;;;;;;5031123;28;20116;-36
2021/12/25 15:03:39;;;;;;;20.80;10.40;;;;;;;;;;5031486;28;20025;-36
2021/12/25 15:06:15;;;;;;;25.13;12.07;;;;;;;;;;5031156;28;20021;-35
2021/12/25 15:08:41;;;;;;;16.75;8.80;;;;;;;;;;5031180;28;20043;-36
2021/12/25 15:11:12;;;;;;;31.15;10.68;;;;;;;;;;5031055;28;20108;-35
2021/12/25 15:13:38;;;;;;;33.75;10.75;;;;;;;;;;5031098;28;20031;-37
2021/12/25 15:16:07;;;;;;;21.02;10.43;;;;;;;;;;5031088;28;20028;-36
2021/12/25 15:18:35;;;;;;;26.08;11.40;;;;;;;;;;5034330;28;20399;-36
2021/12/25 15:21:09;;;;;;;20.25;10.43;;;;;;;;;;5035193;28;20063;-36
2021/12/25 15:23:35;;;;;;;25.48;11.90;;;;;;;;;;5035225;28;20041;-36
2021/12/25 15:26:14;;;;;;;24.20;12.15;;;;;;;;;;5034826;28;20029;-36
2021/12/25 15:28:41;;;;;;;25.73;9.18;;;;;;;;;;5035155;28;20113;-35
2021/12/25 15:31:14;;;;;;;23.40;9.23;;;;;;;;;;5034757;28;20144;-36
2021/12/25 15:33:43;;;;;;;22.45;10.20;;;;;;;;;;5035095;28;20021;-36
2021/12/25 15:36:12;;;;;;;23.08;10.63;;;;;;;;;;5034948;28;20029;-36
2021/12/25 15:38:38;;;;;;;21.98;10.48;;;;;;;;;;5034708;28;20029;-36
2021/12/25 15:41:06;;;;;;;22.63;10.60;;;;;;;;;;5034332;28;20060;-36
2021/12/25 15:43:32;;;;;;;28.98;12.82;;;;;;;;;;5034673;28;20083;-36
2021/12/25 15:46:01;;;;;;;27.50;11.45;;;;;;;;;;5034817;28;20462;-35
2021/12/25 15:48:27;;;;;;;21.60;9.52;;;;;;;;;;5034352;28;20026;-36
2021/12/25 15:50:53;;;;;;;20.17;9.40;;;;;;;;;;5034513;28;20152;-36
2021/12/25 15:53:19;;;;;;;21.73;10.18;;;;;;;;;;5034399;28;20033;-36